createdAt,value
2022-08-26T00:01:53.875Z,33.78
2022-08-26T00:04:23.758Z,19.30
2022-08-26T00:06:51.362Z,24.25
2022-08-26T00:09:19.185Z,19.33
2022-08-26T00:11:48.461Z,20.83
2022-08-26T00:14:16.819Z,20.65
2022-08-26T00:16:47.668Z,21.25
2022-08-26T00:19:20.697Z,19.85
2022-08-26T00:21:49.690Z,31.65
2022-08-26T00:24:19.341Z,19.35
2022-08-26T00:26:47.183Z,19.92
2022-08-26T00:29:14.838Z,26.63
2022-08-26T00:31:42.289Z,23.70
2022-08-26T00:34:11.225Z,25.35
2022-08-26T00:36:40.791Z,30.77
2022-08-26T00:39:08.796Z,30.70
2022-08-26T00:41:39.854Z,19.35
2022-08-26T00:44:07.413Z,24.08
2022-08-26T00:46:46.526Z,22.35
2022-08-26T00:49:19.719Z,32.30
2022-08-26T00:51:56.429Z,23.83
2022-08-26T00:54:27.335Z,21.95
2022-08-26T00:57:01.412Z,18.80
2022-08-26T00:59:32.872Z,15.30
2022-08-26T01:02:00.953Z,17.33
2022-08-26T01:04:31.786Z,22.83
2022-08-26T01:06:59.728Z,29.52
2022-08-26T01:09:27.055Z,24.95
2022-08-26T01:11:57.985Z,24.65
2022-08-26T01:14:29.577Z,23.42
2022-08-26T01:16:57.170Z,20.33
2022-08-26T01:19:30.884Z,22.08
2022-08-26T01:22:19.604Z,24.25
2022-08-26T01:24:49.018Z,24.15
2022-08-26T01:27:19.665Z,22.80
2022-08-26T01:29:49.007Z,18.85
2022-08-26T01:32:22.157Z,34.13
2022-08-26T01:34:50.982Z,23.00
2022-08-26T01:37:24.759Z,18.35
2022-08-26T01:39:53.889Z,19.27
2022-08-26T01:42:23.318Z,25.10
2022-08-26T01:44:55.847Z,25.15
2022-08-26T01:47:26.007Z,33.28
2022-08-26T01:49:55.963Z,17.60
2022-08-26T01:52:27.981Z,16.05
2022-08-26T01:54:59.009Z,21.75
2022-08-26T01:57:27.477Z,17.88
2022-08-26T01:59:58.650Z,25.15
2022-08-26T02:02:26.540Z,21.20
2022-08-26T02:05:06.060Z,25.30
2022-08-26T02:07:34.023Z,20.58
2022-08-26T02:10:01.220Z,23.35
2022-08-26T02:12:28.330Z,21.05
2022-08-26T02:14:58.266Z,36.58
2022-08-26T02:17:34.990Z,17.05
2022-08-26T02:20:03.622Z,17.88
2022-08-26T02:22:31.341Z,18.65
2022-08-26T02:25:06.971Z,21.50
2022-08-26T02:27:35.409Z,19.60
2022-08-26T02:30:17.250Z,16.92
2022-08-26T02:32:44.813Z,18.52
2022-08-26T02:35:13.800Z,22.65
2022-08-26T02:37:49.577Z,19.67
2022-08-26T02:40:21.654Z,23.13
2022-08-26T02:42:49.442Z,20.00
2022-08-26T02:45:23.354Z,36.67
2022-08-26T02:47:52.391Z,20.83
2022-08-26T02:50:20.641Z,21.92
2022-08-26T02:52:48.570Z,34.10
2022-08-26T02:55:16.152Z,26.83
2022-08-26T02:57:43.532Z,19.42
2022-08-26T03:00:13.216Z,26.25
2022-08-26T03:02:40.378Z,24.00
2022-08-26T03:05:08.182Z,24.20
2022-08-26T03:07:35.515Z,23.10
2022-08-26T03:10:06.911Z,31.42
2022-08-26T03:12:35.761Z,23.08
2022-08-26T03:15:03.404Z,18.45
2022-08-26T03:17:50.365Z,18.98
2022-08-26T03:20:18.512Z,22.08
2022-08-26T03:22:45.620Z,31.80
2022-08-26T03:25:15.289Z,23.65
2022-08-26T03:27:42.987Z,19.17
2022-08-26T03:30:30.422Z,17.42
2022-08-26T03:32:57.907Z,24.70
2022-08-26T03:35:25.902Z,22.90
2022-08-26T03:37:53.943Z,26.80
2022-08-26T03:40:21.768Z,18.52
2022-08-26T03:42:50.096Z,23.48
2022-08-26T03:45:18.588Z,24.52
2022-08-26T03:47:46.606Z,22.77
2022-08-26T03:50:17.858Z,18.30
2022-08-26T03:52:51.914Z,19.75
2022-08-26T03:55:23.655Z,22.08
2022-08-26T03:57:51.497Z,19.75
2022-08-26T04:00:19.037Z,22.88
2022-08-26T04:02:48.901Z,21.90
2022-08-26T04:05:18.191Z,22.40
2022-08-26T04:07:45.916Z,22.13
2022-08-26T04:10:16.820Z,20.85
2022-08-26T04:12:47.649Z,14.80
2022-08-26T04:15:16.596Z,28.92
2022-08-26T04:17:45.257Z,20.75
2022-08-26T04:20:14.046Z,27.33
2022-08-26T04:22:43.607Z,23.83
2022-08-26T04:25:11.566Z,23.90
2022-08-26T04:27:39.396Z,23.52
2022-08-26T04:30:09.058Z,26.30
2022-08-26T04:32:36.682Z,20.67
2022-08-26T04:35:04.842Z,21.25
2022-08-26T04:37:33.685Z,29.15
2022-08-26T04:40:01.341Z,14.93
2022-08-26T04:42:29.375Z,20.70
2022-08-26T04:44:56.741Z,23.80
2022-08-26T04:47:27.169Z,25.90
2022-08-26T04:49:57.825Z,28.45
2022-08-26T04:52:25.397Z,19.08
2022-08-26T04:54:52.605Z,17.00
2022-08-26T04:57:19.998Z,20.45
2022-08-26T04:59:47.922Z,19.98
2022-08-26T05:02:16.580Z,19.17
2022-08-26T05:04:43.671Z,22.50
2022-08-26T05:07:11.005Z,26.77
2022-08-26T05:09:40.361Z,22.67
2022-08-26T05:12:08.093Z,24.23
2022-08-26T05:14:36.809Z,18.75
2022-08-26T05:17:04.737Z,21.27
2022-08-26T05:19:32.700Z,35.38
2022-08-26T05:22:00.425Z,30.80
2022-08-26T05:24:27.781Z,22.02
2022-08-26T05:26:56.439Z,28.50
2022-08-26T05:29:24.021Z,25.73
2022-08-26T05:31:52.607Z,26.45
2022-08-26T05:34:20.919Z,27.95
2022-08-26T05:36:48.735Z,24.13
2022-08-26T05:39:16.045Z,20.75
2022-08-26T05:41:44.895Z,25.65
2022-08-26T05:44:17.449Z,52.25
2022-08-26T05:46:45.372Z,26.23
2022-08-26T05:49:14.311Z,25.02
2022-08-26T05:51:45.262Z,27.35
2022-08-26T05:54:13.321Z,26.60
2022-08-26T05:56:41.077Z,22.38
2022-08-26T05:59:14.649Z,27.45
2022-08-26T06:01:43.226Z,28.85
2022-08-26T06:04:10.989Z,22.02
2022-08-26T06:06:41.593Z,28.42
2022-08-26T06:09:11.199Z,15.52
2022-08-26T06:11:39.773Z,25.90
2022-08-26T06:14:08.351Z,23.55
2022-08-26T06:16:41.352Z,28.50
2022-08-26T06:19:11.140Z,36.67
2022-08-26T06:21:41.343Z,24.48
2022-08-26T06:24:31.755Z,27.95
2022-08-26T06:27:05.308Z,24.70
2022-08-26T06:29:34.733Z,23.98
2022-08-26T06:32:03.972Z,19.02
2022-08-26T06:34:31.376Z,26.20
2022-08-26T06:37:02.468Z,28.60
2022-08-26T06:39:31.400Z,33.38
2022-08-26T06:42:00.256Z,27.65
2022-08-26T06:44:27.767Z,28.08
2022-08-26T06:46:55.510Z,23.80
2022-08-26T06:49:27.510Z,24.38
2022-08-26T06:51:58.577Z,39.20
2022-08-26T06:54:27.869Z,27.45
2022-08-26T06:56:57.219Z,27.23
2022-08-26T06:59:24.888Z,28.90
2022-08-26T07:01:52.487Z,39.72
2022-08-26T07:04:23.283Z,37.55
2022-08-26T07:06:52.597Z,32.20
2022-08-26T07:09:21.865Z,40.65
2022-08-26T07:11:49.567Z,32.13
2022-08-26T07:14:21.195Z,28.77
2022-08-26T07:16:50.545Z,25.63
2022-08-26T07:19:30.482Z,37.63
2022-08-26T07:22:03.417Z,24.05
2022-08-26T07:24:31.341Z,39.13
2022-08-26T07:27:03.797Z,40.53
2022-08-26T07:29:33.350Z,55.38
2022-08-26T07:32:00.825Z,31.98
2022-08-26T07:34:28.005Z,26.27
2022-08-26T07:36:57.004Z,39.50
2022-08-26T07:39:25.375Z,28.00
2022-08-26T07:41:53.088Z,21.92
2022-08-26T07:44:20.102Z,44.58
2022-08-26T07:46:53.339Z,32.95
2022-08-26T07:49:21.985Z,37.15
2022-08-26T07:51:50.194Z,31.05
2022-08-26T07:54:17.374Z,42.80
2022-08-26T07:56:46.425Z,43.00
2022-08-26T07:59:15.116Z,27.27
2022-08-26T08:01:45.062Z,41.28
2022-08-26T08:06:41.371Z,25.30
2022-08-26T08:11:38.590Z,30.30
2022-08-26T08:14:08.274Z,40.00
2022-08-26T08:16:38.137Z,40.70
2022-08-26T08:19:07.611Z,37.75
2022-08-26T08:21:34.685Z,29.70
2022-08-26T08:24:01.620Z,39.38
2022-08-26T08:26:28.732Z,47.55
2022-08-26T08:28:57.127Z,31.90
2022-08-26T08:31:57.090Z,31.27
2022-08-26T08:34:15.990Z,37.58
2022-08-26T08:36:46.610Z,45.47
2022-08-26T08:39:14.338Z,31.77
2022-08-26T08:41:41.748Z,33.13
2022-08-26T08:44:16.101Z,36.30
2022-08-26T08:46:44.360Z,28.98
2022-08-26T08:49:15.095Z,24.02
2022-08-26T08:52:01.336Z,21.45
2022-08-26T08:54:30.040Z,16.30
2022-08-26T08:57:08.700Z,16.38
2022-08-26T08:59:42.810Z,19.73
2022-08-26T09:02:19.946Z,18.17
2022-08-26T09:04:59.677Z,15.10
2022-08-26T09:07:40.424Z,20.85
2022-08-26T09:10:16.339Z,27.17
2022-08-26T09:12:47.630Z,32.42
2022-08-26T09:15:21.842Z,33.92
2022-08-26T09:18:27.756Z,40.10
2022-08-26T09:21:06.613Z,23.25
2022-08-26T09:23:36.603Z,28.00
2022-08-26T09:26:13.143Z,20.90
2022-08-26T09:28:45.005Z,17.80
2022-08-26T09:31:22.287Z,16.00
2022-08-26T09:34:17.510Z,21.27
2022-08-26T09:36:59.571Z,11.43
2022-08-26T09:39:38.132Z,11.30
2022-08-26T09:42:10.170Z,11.50
2022-08-26T09:45:04.070Z,9.30
2022-08-26T09:47:37.162Z,21.45
2022-08-26T09:50:12.432Z,41.60
2022-08-26T09:52:42.835Z,18.85
2022-08-26T09:58:08.797Z,26.40
2022-08-26T10:00:39.588Z,12.98
2022-08-26T10:03:21.755Z,13.18
2022-08-26T10:06:03.606Z,14.85
2022-08-26T10:08:38.805Z,8.35
2022-08-26T10:11:21.687Z,8.85
2022-08-26T10:13:56.733Z,13.77
2022-08-26T10:16:33.903Z,24.23
2022-08-26T10:19:15.834Z,26.13
2022-08-26T10:21:59.537Z,26.35
2022-08-26T10:24:34.859Z,27.02
2022-08-26T10:27:31.618Z,30.70
2022-08-26T10:30:06.600Z,34.97
2022-08-26T10:32:41.563Z,13.60
2022-08-26T10:35:12.951Z,14.45
2022-08-26T10:37:49.599Z,10.98
2022-08-26T10:40:27.316Z,8.55
2022-08-26T10:43:09.937Z,6.80
2022-08-26T10:45:53.202Z,10.13
2022-08-26T10:48:46.533Z,9.85
2022-08-26T10:51:18.696Z,6.80
2022-08-26T10:53:46.217Z,6.22
2022-08-26T10:56:43.391Z,6.93
2022-08-26T10:59:33.422Z,10.70
2022-08-26T11:02:33.050Z,4.90
2022-08-26T11:05:03.849Z,22.92
2022-08-26T11:07:51.527Z,15.02
2022-08-26T11:10:19.273Z,7.47
2022-08-26T11:12:49.398Z,8.40
2022-08-26T11:15:26.131Z,8.52
2022-08-26T11:17:55.387Z,7.93
2022-08-26T11:20:39.659Z,18.85
2022-08-26T11:23:24.211Z,10.98
2022-08-26T11:26:10.187Z,6.88
2022-08-26T11:28:48.647Z,7.95
2022-08-26T11:31:25.612Z,10.48
2022-08-26T11:33:54.758Z,14.80
2022-08-26T11:36:43.265Z,7.68
2022-08-26T11:39:20.095Z,9.00
2022-08-26T11:41:52.847Z,6.93
2022-08-26T11:44:29.606Z,30.50
2022-08-26T11:47:01.294Z,20.02
2022-08-26T11:49:30.217Z,7.05
2022-08-26T11:52:22.083Z,11.52
2022-08-26T11:55:19.135Z,17.08
2022-08-26T11:57:53.079Z,9.55
2022-08-26T12:00:34.489Z,8.98
2022-08-26T12:03:06.612Z,19.73
2022-08-26T12:05:43.988Z,17.42
2022-08-26T12:08:16.788Z,16.75
2022-08-26T12:10:44.212Z,20.17
2022-08-26T12:13:22.435Z,25.85
2022-08-26T12:15:58.913Z,18.95
2022-08-26T12:18:38.429Z,17.83
2022-08-26T12:21:22.155Z,6.97
2022-08-26T12:23:56.779Z,19.08
2022-08-26T12:26:28.793Z,11.90
2022-08-26T12:28:57.485Z,8.93
2022-08-26T12:31:35.412Z,10.35
2022-08-26T12:34:05.438Z,7.80
2022-08-26T12:39:14.632Z,10.23
2022-08-26T12:41:51.007Z,8.88
2022-08-26T12:44:33.561Z,10.15
2022-08-26T12:47:10.892Z,13.52
2022-08-26T12:49:40.893Z,8.45
2022-08-26T12:54:57.005Z,6.40
2022-08-26T12:57:30.598Z,7.97
2022-08-26T13:00:22.975Z,6.95
2022-08-26T13:02:56.062Z,8.07
2022-08-26T13:05:27.588Z,7.55
2022-08-26T13:08:16.764Z,5.00
2022-08-26T13:10:47.775Z,6.20
2022-08-26T13:13:15.125Z,11.48
2022-08-26T13:15:42.913Z,8.55
2022-08-26T13:18:12.205Z,10.13
2022-08-26T13:20:45.582Z,4.45
2022-08-26T13:23:14.687Z,8.40
2022-08-26T13:25:43.159Z,9.70
2022-08-26T13:28:11.206Z,11.88
2022-08-26T13:30:39.374Z,9.10
2022-08-26T13:33:08.808Z,10.43
2022-08-26T13:35:39.234Z,12.30
2022-08-26T13:38:08.969Z,6.72
2022-08-26T13:40:36.343Z,14.88
2022-08-26T13:43:03.694Z,9.38
2022-08-26T13:45:31.632Z,8.75
2022-08-26T13:48:00.447Z,6.95
2022-08-26T13:50:27.402Z,6.68
2022-08-26T13:52:54.869Z,8.60
2022-08-26T13:55:22.485Z,10.32
2022-08-26T13:57:49.905Z,11.27
2022-08-26T14:00:17.528Z,20.05
2022-08-26T14:02:45.974Z,26.63
2022-08-26T14:05:14.972Z,20.05
2022-08-26T14:07:44.370Z,30.90
2022-08-26T14:10:15.515Z,24.52
2022-08-26T14:12:46.622Z,14.52
2022-08-26T14:15:18.874Z,13.35
2022-08-26T14:17:49.691Z,12.88
2022-08-26T14:20:30.594Z,12.57
2022-08-26T14:23:13.759Z,11.73
2022-08-26T14:25:44.275Z,13.20
2022-08-26T14:28:13.661Z,20.10
2022-08-26T14:30:46.981Z,16.63
2022-08-26T14:33:18.220Z,11.40
2022-08-26T14:35:48.886Z,7.47
2022-08-26T14:38:19.489Z,12.07
2022-08-26T14:40:47.967Z,9.65
2022-08-26T14:43:17.064Z,10.98
2022-08-26T14:45:46.564Z,6.15
2022-08-26T14:48:14.945Z,10.18
2022-08-26T14:50:43.033Z,11.85
2022-08-26T14:53:29.563Z,10.02
2022-08-26T14:55:57.856Z,8.70
2022-08-26T14:58:26.297Z,6.35
2022-08-26T15:01:04.190Z,8.43
2022-08-26T15:03:32.826Z,11.98
2022-08-26T15:06:00.441Z,13.35
2022-08-26T15:08:27.881Z,7.60
2022-08-26T15:10:55.265Z,6.45
2022-08-26T15:13:22.302Z,8.30
2022-08-26T15:15:49.708Z,7.05
2022-08-26T15:18:17.455Z,11.13
2022-08-26T15:20:44.937Z,10.25
2022-08-26T15:23:12.393Z,7.78
2022-08-26T15:25:39.801Z,9.00
2022-08-26T15:28:07.114Z,6.70
2022-08-26T15:30:34.540Z,10.02
2022-08-26T15:33:01.709Z,4.95
2022-08-26T15:35:29.109Z,5.70
2022-08-26T15:38:00.222Z,8.88
2022-08-26T15:40:27.489Z,4.45
2022-08-26T15:43:11.406Z,6.75
2022-08-26T15:45:42.705Z,6.60
2022-08-26T15:48:09.618Z,8.05
2022-08-26T15:50:42.227Z,9.75
2022-08-26T15:53:09.680Z,15.35
2022-08-26T15:55:37.074Z,10.73
2022-08-26T15:58:04.810Z,13.68
2022-08-26T16:00:34.178Z,7.95
2022-08-26T16:03:01.732Z,6.35
2022-08-26T16:05:34.472Z,6.43
2022-08-26T16:08:10.520Z,10.57
2022-08-26T16:10:47.891Z,8.93
2022-08-26T16:15:48.435Z,6.70
2022-08-26T16:18:15.826Z,6.30
2022-08-26T16:21:04.992Z,7.40
2022-08-26T16:23:39.814Z,6.78
2022-08-26T16:26:11.922Z,10.18
2022-08-26T16:28:39.979Z,16.40
2022-08-26T16:31:08.448Z,9.13
2022-08-26T16:33:35.999Z,8.02
2022-08-26T16:36:03.601Z,6.35
2022-08-26T16:38:31.464Z,5.97
2022-08-26T16:40:59.885Z,6.85
2022-08-26T16:43:27.610Z,13.23
2022-08-26T16:45:54.747Z,7.00
2022-08-26T16:48:23.484Z,9.95
2022-08-26T16:50:51.192Z,10.48
2022-08-26T16:53:19.134Z,11.13
2022-08-26T16:55:48.344Z,8.57
2022-08-26T16:58:16.087Z,17.23
2022-08-26T17:00:43.700Z,19.33
2022-08-26T17:03:10.860Z,16.65
2022-08-26T17:05:37.836Z,11.18
2022-08-26T17:08:05.526Z,12.68
2022-08-26T17:10:35.414Z,10.55
2022-08-26T17:13:03.200Z,12.75
2022-08-26T17:15:31.006Z,12.23
2022-08-26T17:17:58.587Z,11.27
2022-08-26T17:20:26.453Z,10.32
2022-08-26T17:22:55.197Z,9.88
2022-08-26T17:25:22.642Z,9.18
2022-08-26T17:27:50.241Z,10.35
